createdAt,value
2023-01-03T00:02:04.343Z,8.66
2023-01-03T00:07:34.307Z,8.74
2023-01-03T00:12:56.932Z,8.88
2023-01-03T00:18:17.804Z,9.02
2023-01-03T00:23:38.885Z,9.07
2023-01-03T00:29:00.256Z,9.12
2023-01-03T00:34:21.412Z,9.19
2023-01-03T00:39:42.150Z,9.23
2023-01-03T00:45:03.093Z,9.29
2023-01-03T00:50:23.756Z,9.28
2023-01-03T00:55:44.493Z,9.33
2023-01-03T01:01:14.441Z,9.26
2023-01-03T01:06:40.273Z,9.14
2023-01-03T01:12:01.458Z,9.09
2023-01-03T01:17:23.093Z,9.00
2023-01-03T01:22:44.031Z,9.05
2023-01-03T01:28:04.871Z,9.05
2023-01-03T01:33:25.708Z,9.03
2023-01-03T01:38:48.163Z,9.03
2023-01-03T01:44:46.934Z,9.05
2023-01-03T01:50:17.875Z,8.92
2023-01-03T01:55:52.977Z,8.91
2023-01-03T02:01:16.289Z,8.82
2023-01-03T02:06:39.231Z,8.80
2023-01-03T02:12:45.920Z,8.85
2023-01-03T02:18:48.221Z,8.87
2023-01-03T02:24:42.131Z,8.85
2023-01-03T02:30:18.192Z,8.85
2023-01-03T02:35:53.904Z,8.85
2023-01-03T02:41:32.417Z,8.79
2023-01-03T02:47:05.221Z,8.84
2023-01-03T02:52:29.279Z,8.93
2023-01-03T02:58:00.972Z,8.94
2023-01-03T03:03:31.596Z,8.98
2023-01-03T03:08:52.463Z,8.91
2023-01-03T03:14:29.004Z,8.82
2023-01-03T03:20:13.789Z,8.83
2023-01-03T03:25:49.522Z,8.91
2023-01-03T03:31:19.551Z,8.95
2023-01-03T03:37:28.631Z,8.88
2023-01-03T03:43:27.318Z,8.79
2023-01-03T03:49:21.171Z,8.80
2023-01-03T03:54:47.161Z,8.73
2023-01-03T04:00:15.579Z,8.72
2023-01-03T04:05:46.189Z,8.71
2023-01-03T04:11:07.265Z,8.75
2023-01-03T04:16:27.964Z,8.84
2023-01-03T04:21:48.704Z,8.74
2023-01-03T04:27:09.336Z,8.60
2023-01-03T04:32:29.967Z,8.70
2023-01-03T04:37:50.759Z,8.87
2023-01-03T04:43:30.025Z,8.98
2023-01-03T04:48:50.768Z,9.09
2023-01-03T04:54:11.456Z,9.12
2023-01-03T04:59:32.213Z,9.10
2023-01-03T05:04:52.942Z,8.98
2023-01-03T05:10:13.598Z,9.03
2023-01-03T05:15:39.371Z,9.04
2023-01-03T05:21:34.137Z,9.05
2023-01-03T05:26:55.430Z,8.91
2023-01-03T05:32:16.165Z,8.84
2023-01-03T05:37:36.781Z,8.79
2023-01-03T05:42:57.652Z,8.73
2023-01-03T05:48:19.227Z,8.72
2023-01-03T05:53:39.817Z,8.71
2023-01-03T05:59:01.067Z,8.66
2023-01-03T06:04:21.977Z,8.63
2023-01-03T06:09:42.698Z,8.70
2023-01-03T06:15:04.059Z,8.76
2023-01-03T06:20:28.650Z,8.85
2023-01-03T06:25:49.570Z,8.75
2023-01-03T06:31:10.998Z,8.67
2023-01-03T06:36:34.645Z,8.58
2023-01-03T06:41:55.779Z,8.44
2023-01-03T06:47:35.061Z,8.51
2023-01-03T06:53:13.859Z,8.48
2023-01-03T06:58:35.411Z,8.48
2023-01-03T07:03:56.037Z,8.49
2023-01-03T07:09:18.124Z,8.57
2023-01-03T07:14:38.814Z,8.63
2023-01-03T07:19:59.633Z,8.75
2023-01-03T07:25:21.380Z,8.83
2023-01-03T07:30:44.995Z,8.91
2023-01-03T07:36:12.048Z,8.91
2023-01-03T07:41:53.158Z,9.12
2023-01-03T07:47:14.393Z,8.96
2023-01-03T07:52:35.507Z,8.88
2023-01-03T07:57:56.444Z,8.91
2023-01-03T08:03:17.602Z,8.83
2023-01-03T08:08:38.867Z,8.80
2023-01-03T08:14:00.155Z,8.83
2023-01-03T08:19:21.225Z,8.84
2023-01-03T08:24:42.024Z,8.87
2023-01-03T08:30:02.875Z,8.93
2023-01-03T08:35:26.453Z,8.87
2023-01-03T08:40:48.117Z,8.85
2023-01-03T08:46:11.502Z,8.88
2023-01-03T08:51:32.431Z,8.95
2023-01-03T08:56:53.497Z,9.00
2023-01-03T09:02:14.170Z,9.03
2023-01-03T09:07:35.466Z,8.97
2023-01-03T09:12:56.156Z,9.10
2023-01-03T09:18:16.833Z,8.97
2023-01-03T09:23:38.080Z,9.02
2023-01-03T09:28:58.827Z,8.99
2023-01-03T09:34:19.687Z,8.93
2023-01-03T09:39:40.711Z,8.93
2023-01-03T09:45:02.957Z,8.85
2023-01-03T09:50:39.459Z,8.75
2023-01-03T09:56:31.648Z,8.82
2023-01-03T10:02:14.256Z,8.84
2023-01-03T10:08:08.955Z,8.75
2023-01-03T10:13:41.909Z,8.76
2023-01-03T10:19:11.957Z,8.76
2023-01-03T10:24:41.622Z,8.76
2023-01-03T10:30:06.533Z,8.85
2023-01-03T10:35:36.160Z,8.92
2023-01-03T10:40:59.937Z,9.04
2023-01-03T10:46:22.798Z,9.05
2023-01-03T10:51:54.600Z,9.23
2023-01-03T10:57:53.349Z,9.18
2023-01-03T11:03:17.320Z,9.14
2023-01-03T11:08:42.888Z,9.16
2023-01-03T11:14:19.732Z,9.29
2023-01-03T11:19:40.723Z,9.20
2023-01-03T11:25:11.591Z,9.40
2023-01-03T11:30:37.971Z,9.53
2023-01-03T11:36:18.213Z,9.77
2023-01-03T11:42:06.774Z,9.90
2023-01-03T11:47:41.126Z,9.85
2023-01-03T11:53:43.498Z,9.67
2023-01-03T11:59:23.306Z,9.48
2023-01-03T12:05:15.380Z,9.46
2023-01-03T12:10:42.752Z,9.43
2023-01-03T12:16:39.475Z,9.40
2023-01-03T12:22:17.877Z,10.11
2023-01-03T12:27:44.715Z,9.99
2023-01-03T12:33:32.029Z,9.77
2023-01-03T12:39:20.596Z,9.55
2023-01-03T12:44:45.229Z,9.57
2023-01-03T12:50:31.207Z,9.51
2023-01-03T12:56:26.938Z,9.56
2023-01-03T13:01:58.745Z,9.41
2023-01-03T13:07:31.509Z,9.38
2023-01-03T13:12:53.228Z,9.34
2023-01-03T13:18:22.982Z,9.91
2023-01-03T13:23:59.801Z,9.64
2023-01-03T13:29:33.000Z,9.40
2023-01-03T13:34:56.758Z,9.13
2023-01-03T13:40:59.800Z,9.20
2023-01-03T13:46:32.959Z,9.34
2023-01-03T13:51:54.781Z,9.35
2023-01-03T13:57:37.430Z,9.37
2023-01-03T14:03:21.552Z,9.28
2023-01-03T14:09:06.145Z,9.30
2023-01-03T14:14:30.789Z,9.18
2023-01-03T14:19:55.847Z,9.18
2023-01-03T14:25:49.097Z,9.36
2023-01-03T14:31:18.794Z,9.53
2023-01-03T14:36:47.614Z,9.36
2023-01-03T14:42:16.430Z,9.12
2023-01-03T14:47:42.904Z,9.12
2023-01-03T14:53:03.734Z,9.00
2023-01-03T14:58:39.510Z,8.87
2023-01-03T15:04:00.758Z,8.82
2023-01-03T15:09:23.152Z,8.72
2023-01-03T15:14:43.893Z,8.71
2023-01-03T15:20:08.764Z,8.63
2023-01-03T15:25:37.679Z,8.49
2023-01-03T15:31:15.246Z,8.78
2023-01-03T15:36:37.369Z,8.47
2023-01-03T15:42:43.453Z,8.24
2023-01-03T15:48:04.166Z,8.11
2023-01-03T15:53:43.769Z,7.81
2023-01-03T15:59:09.434Z,7.63
2023-01-03T16:04:30.495Z,7.48
2023-01-03T16:09:51.255Z,7.26
2023-01-03T16:15:19.950Z,7.07
2023-01-03T16:20:41.444Z,7.09
2023-01-03T16:26:05.132Z,7.09
2023-01-03T16:31:32.003Z,7.16
2023-01-03T16:36:53.499Z,7.21
2023-01-03T16:42:15.220Z,7.06
2023-01-03T16:47:36.091Z,7.00
2023-01-03T16:52:57.302Z,6.98
2023-01-03T16:58:20.541Z,7.06
2023-01-03T17:03:42.582Z,6.96
2023-01-03T17:09:05.871Z,6.84
2023-01-03T17:14:26.722Z,6.75
2023-01-03T17:20:05.640Z,6.57
2023-01-03T17:25:27.468Z,6.60
2023-01-03T17:30:51.141Z,6.69
2023-01-03T17:36:15.176Z,6.51
2023-01-03T17:41:56.223Z,6.36
2023-01-03T17:47:35.770Z,6.55
2023-01-03T17:52:58.757Z,6.79
2023-01-03T17:58:31.897Z,6.70
2023-01-03T18:03:52.868Z,6.67
2023-01-03T18:09:16.015Z,6.75
2023-01-03T18:14:36.618Z,6.71
2023-01-03T18:19:59.119Z,6.65
2023-01-03T18:25:25.513Z,6.57
2023-01-03T18:30:47.612Z,6.45
2023-01-03T18:36:22.287Z,6.17
2023-01-03T18:41:46.273Z,5.89
2023-01-03T18:47:12.367Z,5.92
2023-01-03T18:52:39.284Z,5.67
2023-01-03T18:58:29.998Z,5.70
2023-01-03T19:03:51.095Z,5.75
2023-01-03T19:09:24.409Z,5.83
2023-01-03T19:14:47.038Z,5.87
2023-01-03T19:20:08.332Z,5.79
2023-01-03T19:25:30.391Z,5.82
2023-01-03T19:30:52.151Z,5.86
2023-01-03T19:36:20.503Z,5.76
2023-01-03T19:42:05.922Z,5.75
2023-01-03T19:47:26.976Z,5.60
2023-01-03T19:52:48.532Z,5.41
2023-01-03T19:58:24.249Z,5.38
2023-01-03T20:03:45.661Z,5.34
2023-01-03T20:09:06.615Z,5.41
2023-01-03T20:14:30.973Z,5.41
2023-01-03T20:19:52.654Z,5.31
2023-01-03T20:25:31.609Z,5.40
2023-01-03T20:30:52.425Z,5.42
2023-01-03T20:36:23.027Z,5.07
2023-01-03T20:41:44.539Z,4.95
2023-01-03T20:47:05.467Z,5.04
2023-01-03T20:52:25.975Z,5.10
2023-01-03T20:57:47.713Z,5.18
2023-01-03T21:03:08.967Z,5.13
2023-01-03T21:08:50.891Z,4.96
2023-01-03T21:14:11.938Z,4.89
2023-01-03T21:19:32.760Z,4.81
2023-01-03T21:24:57.541Z,4.75
2023-01-03T21:30:21.014Z,4.70
2023-01-03T21:35:42.195Z,4.46
2023-01-03T21:41:02.851Z,4.47
2023-01-03T21:46:25.239Z,4.45
2023-01-03T21:51:46.269Z,4.47
2023-01-03T21:57:07.203Z,4.20
2023-01-03T22:02:46.655Z,4.14
2023-01-03T22:08:07.634Z,4.19
2023-01-03T22:13:28.722Z,4.15
2023-01-03T22:18:49.696Z,4.05
2023-01-03T22:24:10.659Z,4.10
2023-01-03T22:29:31.377Z,4.00
2023-01-03T22:34:52.464Z,4.17
2023-01-03T22:40:16.470Z,4.30
2023-01-03T22:45:38.812Z,4.35
2023-01-03T22:51:08.128Z,4.28
2023-01-03T22:56:28.857Z,4.26
2023-01-03T23:01:50.434Z,4.22
2023-01-03T23:07:11.772Z,4.29
2023-01-03T23:12:51.111Z,4.24
2023-01-03T23:18:11.794Z,4.29
2023-01-03T23:23:32.661Z,4.31
2023-01-03T23:28:57.518Z,4.33
2023-01-03T23:34:18.599Z,4.18
2023-01-03T23:39:40.064Z,4.05
2023-01-03T23:45:00.828Z,4.01
2023-01-03T23:50:21.677Z,4.05
2023-01-03T23:55:43.072Z,4.14
